OMCAU LZIB-LZNI
Flight info
| Callsign | OMCAU |
|---|---|
| Flight time | 0h 14m |
| Altitude | 1500 |
| Route | LZIBC |
| Aircraft | C172 |
Departure
| Time | 2026-04-27 16:33 |
|---|---|
| Airport | M. R. Štefánik Airport (LZIB) |
Arrival
| Time | 2026-04-27 16:48 |
|---|---|
| Airport | Nitra Airfield (LZNI) |
| Time | Latitude | Longitude | Altitude | Speed | Heading |
|---|---|---|---|---|---|
| 2026-04-27 16:27 | 48.17758 | 17.25369 | 547 ft | 110 kts | 68° |
| 2026-04-27 16:28 | 48.18105 | 17.27641 | 540 ft | 114 kts | 78° |
| 2026-04-27 16:28 | 48.18347 | 17.30033 | 480 ft | 120 kts | 80° |
| 2026-04-27 16:29 | 48.19090 | 17.33588 | 437 ft | 120 kts | 70° |
| 2026-04-27 16:30 | 48.19853 | 17.35760 | 513 ft | 112 kts | 60° |
| 2026-04-27 16:30 | 48.20348 | 17.37576 | 410 ft | 72 kts | 81° |
| 2026-04-27 16:31 | 48.20413 | 17.38084 | 399 ft | 25 kts | 81° |
| 2026-04-27 16:31 | 48.20545 | 17.39063 | 499 ft | 64 kts | 67° |
| 2026-04-27 16:32 | 48.20952 | 17.40652 | 581 ft | 97 kts | 68° |
| 2026-04-27 16:32 | 48.21180 | 17.41659 | 618 ft | 105 kts | 73° |
| 2026-04-27 16:33 | 48.21349 | 17.43859 | 748 ft | 108 kts | 83° |
| 2026-04-27 16:33 | 48.21405 | 17.44910 | 917 ft | 101 kts | 83° |
| 2026-04-27 16:33 | 48.21466 | 17.45987 | 1003 ft | 103 kts | 85° |
| 2026-04-27 16:33 | 48.21510 | 17.47055 | 1085 ft | 106 kts | 83° |
| 2026-04-27 16:34 | 48.21581 | 17.48181 | 1121 ft | 110 kts | 83° |
| 2026-04-27 16:34 | 48.21646 | 17.49349 | 1110 ft | 115 kts | 83° |
| 2026-04-27 16:34 | 48.21740 | 17.50553 | 1085 ft | 118 kts | 81° |
| 2026-04-27 16:34 | 48.21836 | 17.51791 | 1059 ft | 119 kts | 82° |
| 2026-04-27 16:35 | 48.21960 | 17.53025 | 1039 ft | 119 kts | 78° |
| 2026-04-27 16:35 | 48.22118 | 17.54229 | 1022 ft | 119 kts | 76° |
| 2026-04-27 16:35 | 48.22506 | 17.56644 | 1037 ft | 113 kts | 75° |
| 2026-04-27 16:36 | 48.22729 | 17.57796 | 1008 ft | 117 kts | 71° |
| 2026-04-27 16:36 | 48.22942 | 17.58972 | 1035 ft | 115 kts | 73° |
| 2026-04-27 16:36 | 48.23159 | 17.60120 | 1047 ft | 115 kts | 71° |
| 2026-04-27 16:36 | 48.23408 | 17.61264 | 1037 ft | 117 kts | 69° |
| 2026-04-27 16:37 | 48.23679 | 17.62428 | 1035 ft | 117 kts | 69° |
| 2026-04-27 16:37 | 48.23926 | 17.63605 | 1017 ft | 118 kts | 70° |
| 2026-04-27 16:37 | 48.24187 | 17.64767 | 995 ft | 118 kts | 69° |
| 2026-04-27 16:37 | 48.24470 | 17.65911 | 995 ft | 116 kts | 68° |
| 2026-04-27 16:38 | 48.24785 | 17.67044 | 998 ft | 116 kts | 66° |
| 2026-04-27 16:38 | 48.25114 | 17.68149 | 977 ft | 117 kts | 64° |
| 2026-04-27 16:38 | 48.25446 | 17.69243 | 999 ft | 115 kts | 65° |
| 2026-04-27 16:38 | 48.25770 | 17.70343 | 989 ft | 115 kts | 64° |
| 2026-04-27 16:39 | 48.26100 | 17.71438 | 1004 ft | 114 kts | 65° |
| 2026-04-27 16:39 | 48.26328 | 17.72566 | 1039 ft | 113 kts | 73° |
| 2026-04-27 16:39 | 48.26530 | 17.73717 | 1032 ft | 115 kts | 73° |
| 2026-04-27 16:39 | 48.26749 | 17.74906 | 996 ft | 117 kts | 72° |
| 2026-04-27 16:40 | 48.26978 | 17.76072 | 996 ft | 116 kts | 70° |
| 2026-04-27 16:40 | 48.27208 | 17.77234 | 992 ft | 116 kts | 71° |
| 2026-04-27 16:40 | 48.27427 | 17.78405 | 1020 ft | 115 kts | 71° |
| 2026-04-27 16:40 | 48.27657 | 17.79556 | 1015 ft | 116 kts | 69° |
| 2026-04-27 16:41 | 48.27885 | 17.80706 | 1049 ft | 114 kts | 76° |
| 2026-04-27 16:41 | 48.28060 | 17.81878 | 1022 ft | 117 kts | 73° |
| 2026-04-27 16:41 | 48.28273 | 17.83061 | 1009 ft | 117 kts | 73° |
| 2026-04-27 16:41 | 48.28473 | 17.84232 | 1018 ft | 115 kts | 75° |
| 2026-04-27 16:42 | 48.28622 | 17.85419 | 1005 ft | 117 kts | 77° |
| 2026-04-27 16:42 | 48.28778 | 17.86618 | 1026 ft | 115 kts | 76° |
| 2026-04-27 16:42 | 48.28956 | 17.87791 | 1026 ft | 114 kts | 74° |
| 2026-04-27 16:42 | 48.29108 | 17.88957 | 1042 ft | 115 kts | 76° |
| 2026-04-27 16:43 | 48.29246 | 17.90149 | 1055 ft | 114 kts | 77° |
| 2026-04-27 16:43 | 48.29385 | 17.91323 | 1056 ft | 115 kts | 77° |
| 2026-04-27 16:43 | 48.29507 | 17.92462 | 1224 ft | 103 kts | 79° |
| 2026-04-27 16:43 | 48.29607 | 17.93522 | 1313 ft | 105 kts | 77° |
| 2026-04-27 16:44 | 48.29696 | 17.94661 | 1299 ft | 113 kts | 80° |
| 2026-04-27 16:44 | 48.29785 | 17.95845 | 1287 ft | 116 kts | 80° |
| 2026-04-27 16:44 | 48.29866 | 17.97054 | 1288 ft | 117 kts | 82° |
| 2026-04-27 16:44 | 48.29890 | 17.98279 | 1288 ft | 117 kts | 84° |
| 2026-04-27 16:45 | 48.29931 | 17.99496 | 1297 ft | 117 kts | 83° |
| 2026-04-27 16:45 | 48.29990 | 18.00724 | 1283 ft | 117 kts | 82° |
| 2026-04-27 16:45 | 48.30036 | 18.01944 | 1290 ft | 117 kts | 85° |
| 2026-04-27 16:45 | 48.30044 | 18.03157 | 1311 ft | 116 kts | 86° |
| 2026-04-27 16:46 | 48.30060 | 18.04379 | 1352 ft | 114 kts | 86° |
| 2026-04-27 16:46 | 48.30051 | 18.05583 | 1326 ft | 118 kts | 89° |
| 2026-04-27 16:46 | 48.29940 | 18.06809 | 1322 ft | 119 kts | 99° |
| 2026-04-27 16:46 | 48.29697 | 18.08014 | 1302 ft | 121 kts | 102° |
| 2026-04-27 16:47 | 48.29482 | 18.09264 | 1115 ft | 125 kts | 101° |
| 2026-04-27 16:47 | 48.29294 | 18.10394 | 937 ft | 99 kts | 102° |
| 2026-04-27 16:47 | 48.29111 | 18.11286 | 859 ft | 77 kts | 105° |
| 2026-04-27 16:47 | 48.28936 | 18.11960 | 731 ft | 70 kts | 107° |
| 2026-04-27 16:48 | 48.28642 | 18.12562 | 586 ft | 70 kts | 136° |
| 2026-04-27 16:48 | 48.28270 | 18.12966 | 432 ft | 59 kts | 141° |
| 2026-04-27 16:48 | 48.27995 | 18.13260 | 430 ft | 31 kts | 144° |
| 2026-04-27 16:49 | 48.28014 | 18.13487 | 430 ft | 12 kts | 115° |
| 2026-04-27 16:49 | 48.27999 | 18.13510 | 430 ft | 0 kts | 143° |